createdAt,value
2022-10-22T00:02:22.375Z,101835.59
2022-10-22T00:07:28.300Z,101842.38
2022-10-22T00:12:28.520Z,101860.19
2022-10-22T00:17:29.544Z,101831.72
2022-10-22T00:22:28.848Z,101799.47
2022-10-22T00:27:28.406Z,101795.41
2022-10-22T00:32:26.127Z,101822.19
2022-10-22T00:37:23.601Z,101807.00
2022-10-22T00:42:24.101Z,101784.53
2022-10-22T00:47:35.556Z,101842.00
2022-10-22T00:52:35.446Z,101801.34
2022-10-22T00:57:35.683Z,101784.06
2022-10-22T01:02:37.983Z,101751.19
2022-10-22T01:07:43.526Z,101762.44
2022-10-22T01:13:09.728Z,101755.25
2022-10-22T01:18:15.287Z,101808.31
2022-10-22T01:23:51.617Z,101818.56
2022-10-22T01:28:55.749Z,101822.88
2022-10-22T01:33:54.899Z,101825.03
2022-10-22T01:38:54.167Z,101763.16
2022-10-22T01:43:54.654Z,101775.72
2022-10-22T01:49:03.591Z,101818.94
2022-10-22T01:54:14.459Z,101813.72
2022-10-22T01:59:36.170Z,101804.91
2022-10-22T02:04:54.929Z,101809.38
2022-10-22T02:09:58.327Z,101743.69
2022-10-22T02:14:58.769Z,101756.53
2022-10-22T02:20:02.937Z,101741.91
2022-10-22T02:25:01.196Z,101786.31
2022-10-22T02:30:05.840Z,101748.72
2022-10-22T02:35:04.657Z,101788.03
2022-10-22T02:40:02.568Z,101732.66
2022-10-22T02:45:05.058Z,101759.41
2022-10-22T02:50:05.479Z,101731.00
2022-10-22T02:55:06.802Z,101732.06
2022-10-22T03:00:08.269Z,101717.91
2022-10-22T03:05:08.469Z,101721.22
2022-10-22T03:10:08.290Z,101701.63
2022-10-22T03:15:09.879Z,101714.63
2022-10-22T03:20:08.715Z,101736.09
2022-10-22T03:25:08.619Z,101706.34
2022-10-22T03:30:11.556Z,101692.84
2022-10-22T03:35:13.044Z,101762.94
2022-10-22T03:40:12.425Z,101696.16
2022-10-22T03:45:11.417Z,101714.00
2022-10-22T03:50:10.872Z,101718.00
2022-10-22T03:55:09.930Z,101756.16
2022-10-22T04:00:08.837Z,101705.75
2022-10-22T04:05:09.349Z,101733.75
2022-10-22T04:10:09.002Z,101756.06
2022-10-22T04:15:07.895Z,101697.59
2022-10-22T04:20:06.128Z,101739.28
2022-10-22T04:25:08.502Z,101746.25
2022-10-22T04:30:09.226Z,101726.41
2022-10-22T04:35:11.292Z,101708.13
2022-10-22T04:40:10.979Z,101699.00
2022-10-22T04:45:10.172Z,101751.59
2022-10-22T04:50:15.673Z,101745.75
2022-10-22T04:55:25.811Z,101744.59
2022-10-22T05:00:23.783Z,101756.25
2022-10-22T05:05:24.535Z,101758.66
2022-10-22T05:10:25.576Z,101721.34
2022-10-22T05:15:24.252Z,101791.03
2022-10-22T05:20:25.788Z,101708.16
2022-10-22T05:25:25.842Z,101737.91
2022-10-22T05:30:27.862Z,101758.66
2022-10-22T05:35:28.935Z,101765.44
2022-10-22T05:40:31.150Z,101777.03
2022-10-22T05:45:40.389Z,101773.88
2022-10-22T05:50:42.065Z,101727.91
2022-10-22T05:55:41.202Z,101754.28
2022-10-22T06:00:42.693Z,101751.03
2022-10-22T06:05:43.370Z,101726.44
2022-10-22T06:10:45.596Z,101755.66
2022-10-22T06:15:44.087Z,101712.13
2022-10-22T06:20:52.544Z,101742.44
2022-10-22T06:26:02.581Z,101700.94
2022-10-22T06:31:02.493Z,101714.97
2022-10-22T06:36:09.183Z,101728.13
2022-10-22T06:41:16.537Z,101725.88
2022-10-22T06:46:19.970Z,101692.97
2022-10-22T06:51:28.573Z,101742.22
2022-10-22T06:56:29.739Z,101688.41
2022-10-22T07:01:34.756Z,101721.44
2022-10-22T07:06:36.277Z,101722.06
2022-10-22T07:11:40.997Z,101701.78
2022-10-22T07:16:45.771Z,101700.44
2022-10-22T07:21:45.574Z,101671.03
2022-10-22T07:26:47.151Z,101723.75
2022-10-22T07:31:46.785Z,101666.16
2022-10-22T07:36:46.445Z,101659.19
2022-10-22T07:41:46.624Z,101669.88
2022-10-22T07:46:49.091Z,101661.19
2022-10-22T07:52:13.239Z,101721.41
2022-10-22T07:57:10.849Z,101674.50
2022-10-22T08:02:17.183Z,101698.22
2022-10-22T08:07:19.256Z,101677.50
2022-10-22T08:12:17.918Z,101737.97
2022-10-22T08:17:17.646Z,101709.59
2022-10-22T08:22:18.505Z,101724.41
2022-10-22T08:32:49.320Z,101688.03
2022-10-22T08:37:52.906Z,101669.28
2022-10-22T08:48:59.431Z,101667.22
2022-10-22T08:54:36.206Z,101718.56
2022-10-22T08:59:48.905Z,101674.09
2022-10-22T09:04:59.347Z,101670.09
2022-10-22T09:09:59.939Z,101696.50
2022-10-22T09:15:00.785Z,101675.28
2022-10-22T09:20:26.473Z,101695.28
2022-10-22T09:25:27.809Z,101657.63
2022-10-22T09:30:38.014Z,101660.75
2022-10-22T09:35:54.112Z,101660.94
2022-10-22T09:40:53.769Z,101659.59
2022-10-22T09:46:06.659Z,101646.13
2022-10-22T09:51:23.700Z,101693.50
2022-10-22T09:56:31.161Z,101689.03
2022-10-22T10:01:33.623Z,101665.59
2022-10-22T10:06:35.686Z,101639.28
2022-10-22T10:11:40.204Z,101630.78
2022-10-22T10:17:01.243Z,101635.94
2022-10-22T10:22:43.301Z,101655.50
2022-10-22T10:27:51.588Z,101647.44
2022-10-22T10:33:27.752Z,101652.09
2022-10-22T10:38:32.027Z,101644.38
2022-10-22T10:43:38.602Z,101622.19
2022-10-22T10:48:49.223Z,101618.06
2022-10-22T10:54:21.701Z,101606.28
2022-10-22T10:59:50.898Z,101597.63
2022-10-22T11:05:03.843Z,101537.63
2022-10-22T11:10:31.739Z,101545.16
2022-10-22T11:16:34.000Z,101559.66
2022-10-22T11:21:54.136Z,101523.84
2022-10-22T11:27:03.063Z,101545.47
2022-10-22T11:32:06.779Z,101510.81
2022-10-22T11:37:05.964Z,101521.63
2022-10-22T11:42:23.265Z,101464.03
2022-10-22T11:47:53.960Z,101508.81
2022-10-22T11:53:02.823Z,101466.84
2022-10-22T11:58:03.064Z,101487.03
2022-10-22T12:03:35.513Z,101477.03
2022-10-22T12:08:43.618Z,101450.16
2022-10-22T12:14:05.039Z,101461.56
2022-10-22T12:19:34.295Z,101425.34
2022-10-22T12:24:35.700Z,101439.97
2022-10-22T12:29:35.358Z,101436.91
2022-10-22T12:39:56.422Z,101391.34
2022-10-22T12:44:58.771Z,101392.50
2022-10-22T12:49:57.409Z,101409.03
2022-10-22T12:54:58.089Z,101398.13
2022-10-22T12:59:56.315Z,101387.66
2022-10-22T13:05:28.201Z,101409.81
2022-10-22T13:10:32.229Z,101366.47
2022-10-22T13:15:35.754Z,101399.13
2022-10-22T13:20:38.804Z,101348.34
2022-10-22T13:25:44.464Z,101364.63
2022-10-22T13:31:03.651Z,101394.03
2022-10-22T13:36:04.254Z,101343.69
2022-10-22T13:41:24.927Z,101377.97
2022-10-22T13:46:25.620Z,101369.94
2022-10-22T13:51:41.224Z,101384.63
2022-10-22T13:56:49.270Z,101355.94
2022-10-22T14:01:51.281Z,101340.28
2022-10-22T14:06:53.057Z,101328.94
2022-10-22T14:11:52.872Z,101364.13
2022-10-22T14:17:01.091Z,101353.75
2022-10-22T14:22:15.151Z,101350.47
2022-10-22T14:27:15.005Z,101337.25
2022-10-22T14:32:23.320Z,101356.56
2022-10-22T14:37:27.058Z,101332.75
2022-10-22T14:42:28.396Z,101344.13
2022-10-22T14:47:33.753Z,101358.19
2022-10-22T14:52:32.676Z,101312.38
2022-10-22T14:57:30.971Z,101313.38
2022-10-22T15:02:31.969Z,101323.34
2022-10-22T15:07:31.346Z,101344.25
2022-10-22T15:12:32.212Z,101337.38
2022-10-22T15:17:36.513Z,101315.94
2022-10-22T15:22:35.739Z,101330.78
2022-10-22T15:27:38.272Z,101329.88
2022-10-22T15:32:48.845Z,101339.75
2022-10-22T15:37:51.031Z,101327.72
2022-10-22T15:42:52.450Z,101364.16
2022-10-22T15:47:53.536Z,101357.00
2022-10-22T15:52:54.806Z,101346.50
2022-10-22T15:57:57.970Z,101349.28
2022-10-22T16:03:04.879Z,101360.47
2022-10-22T16:08:10.167Z,101349.19
2022-10-22T16:13:09.035Z,101317.94
2022-10-22T16:18:18.910Z,101339.56
2022-10-22T16:23:24.719Z,101339.56
2022-10-22T16:28:25.571Z,101322.09
2022-10-22T16:33:27.006Z,101325.88
2022-10-22T16:38:26.487Z,101341.78
2022-10-22T16:43:26.220Z,101348.13
2022-10-22T16:48:24.589Z,101350.72
2022-10-22T16:53:26.988Z,101361.97
2022-10-22T16:58:28.468Z,101332.28
2022-10-22T17:03:32.848Z,101332.13
2022-10-22T17:08:41.637Z,101321.38
2022-10-22T17:14:02.562Z,101328.66
2022-10-22T17:19:04.336Z,101345.59
2022-10-22T17:24:07.851Z,101334.28
2022-10-22T17:29:08.570Z,101338.91
2022-10-22T17:34:16.068Z,101350.38
2022-10-22T17:39:19.917Z,101360.75
2022-10-22T17:44:21.481Z,101357.47
2022-10-22T17:49:21.207Z,101330.78
2022-10-22T17:54:21.038Z,101330.41
2022-10-22T17:59:20.099Z,101347.88
2022-10-22T18:04:23.149Z,101330.09
2022-10-22T18:09:27.219Z,101353.03
2022-10-22T18:14:28.622Z,101357.66
2022-10-22T18:19:50.168Z,101292.78
2022-10-22T18:30:20.858Z,101306.81
2022-10-22T18:35:21.000Z,101315.78
2022-10-22T18:40:21.414Z,101307.19
2022-10-22T18:45:20.467Z,101306.16
2022-10-22T18:50:23.534Z,101319.25
2022-10-22T18:55:22.606Z,101321.06
2022-10-22T19:00:26.624Z,101312.88
2022-10-22T19:05:25.639Z,101321.78
2022-10-22T19:10:24.324Z,101288.91
2022-10-22T19:20:36.515Z,101318.34
2022-10-22T19:25:38.900Z,101315.03
2022-10-22T19:30:36.233Z,101337.03
2022-10-22T19:35:37.450Z,101314.91
2022-10-22T19:40:37.874Z,101285.63
2022-10-22T19:45:41.047Z,101276.63
2022-10-22T19:50:39.804Z,101318.34
2022-10-22T19:55:47.171Z,101295.50
2022-10-22T20:00:55.414Z,101279.75
2022-10-22T20:05:55.723Z,101286.16
2022-10-22T20:10:57.860Z,101311.19
2022-10-22T20:16:02.121Z,101307.66
2022-10-22T20:21:33.653Z,101268.22
2022-10-22T20:26:50.612Z,101291.47
2022-10-22T20:31:52.260Z,101285.66
2022-10-22T20:37:14.315Z,101311.31
2022-10-22T20:42:15.740Z,101329.78
2022-10-22T20:48:02.075Z,101280.66
2022-10-22T20:59:19.041Z,101268.09
2022-10-22T21:04:20.035Z,101223.94
2022-10-22T21:09:37.355Z,101239.50
2022-10-22T21:14:46.391Z,101272.09
2022-10-22T21:19:53.076Z,101264.78
2022-10-22T21:24:51.619Z,101225.91
2022-10-22T21:30:03.339Z,101229.91
2022-10-22T21:35:04.617Z,101209.63
2022-10-22T21:40:07.006Z,101218.63
2022-10-22T21:45:13.551Z,101247.53
2022-10-22T21:50:20.724Z,101212.31
2022-10-22T21:55:23.466Z,101245.88
2022-10-22T22:00:32.594Z,101256.78
2022-10-22T22:05:45.307Z,101239.47
2022-10-22T22:17:36.543Z,101228.22
2022-10-22T22:22:35.000Z,101233.84
2022-10-22T22:27:41.119Z,101232.19
2022-10-22T22:32:42.669Z,101282.34
2022-10-22T22:37:45.613Z,101207.94
2022-10-22T22:42:47.523Z,101212.03
2022-10-22T22:47:51.447Z,101212.03
2022-10-22T22:52:50.165Z,101239.69
2022-10-22T22:57:51.817Z,101191.41
2022-10-22T23:02:54.647Z,101194.66
2022-10-22T23:07:58.386Z,101188.25
2022-10-22T23:12:56.729Z,101199.69
2022-10-22T23:17:55.643Z,101196.25
2022-10-22T23:22:52.957Z,101153.75
2022-10-22T23:27:54.288Z,101190.06
2022-10-22T23:32:55.775Z,101169.97
2022-10-22T23:37:55.321Z,101187.41
2022-10-22T23:42:55.935Z,101199.34
2022-10-22T23:47:56.792Z,101222.63
2022-10-22T23:52:54.220Z,101228.69
2022-10-22T23:57:54.109Z,101192.63
